createdAt,value
2019-01-06T00:00:38.633Z,17.5
2019-01-06T00:01:39.942Z,17.5
2019-01-06T00:02:41.224Z,17.5
2019-01-06T00:03:42.528Z,17.5
2019-01-06T00:04:43.850Z,17.5
2019-01-06T00:05:45.190Z,17.6
2019-01-06T00:06:46.881Z,17.6
2019-01-06T00:07:48.203Z,17.6
2019-01-06T00:08:49.619Z,17.6
2019-01-06T00:09:50.927Z,17.6
2019-01-06T00:10:52.236Z,17.5
2019-01-06T00:11:53.541Z,17.5
2019-01-06T00:12:54.823Z,17.5
2019-01-06T00:13:56.293Z,17.5
2019-01-06T00:14:57.598Z,17.5
2019-01-06T00:15:58.985Z,17.6
2019-01-06T00:17:00.266Z,17.6
2019-01-06T00:18:01.549Z,17.6
2019-01-06T00:19:02.877Z,17.6
2019-01-06T00:20:06.422Z,17.6
2019-01-06T00:21:07.754Z,17.6
2019-01-06T00:22:09.051Z,17.6
2019-01-06T00:23:10.365Z,17.6
2019-01-06T00:24:11.646Z,17.6
2019-01-06T00:25:12.918Z,17.6
2019-01-06T00:26:14.308Z,17.6
2019-01-06T00:27:15.929Z,17.5
2019-01-06T00:28:17.212Z,17.5
2019-01-06T00:29:18.868Z,17.6
2019-01-06T00:30:20.356Z,17.6
2019-01-06T00:31:21.669Z,17.6
2019-01-06T00:32:23.229Z,17.6
2019-01-06T00:33:24.626Z,17.6
2019-01-06T00:34:25.957Z,17.6
2019-01-06T00:35:27.253Z,17.6
2019-01-06T00:36:28.625Z,17.6
2019-01-06T00:37:29.926Z,17.6
2019-01-06T00:38:31.220Z,17.6
2019-01-06T00:39:32.521Z,17.5
2019-01-06T00:40:33.823Z,17.5
2019-01-06T00:41:35.150Z,17.6
2019-01-06T00:42:36.466Z,17.6
2019-01-06T00:43:39.330Z,17.6
2019-01-06T00:44:43.498Z,17.6
2019-01-06T00:45:45.313Z,17.6
2019-01-06T00:46:46.660Z,17.6
2019-01-06T00:47:47.978Z,17.6
2019-01-06T00:48:49.289Z,17.6
2019-01-06T00:49:50.977Z,17.7
2019-01-06T00:50:54.491Z,17.6
2019-01-06T00:51:56.255Z,17.6
2019-01-06T00:52:57.765Z,17.6
2019-01-06T00:54:02.781Z,17.6
2019-01-06T00:55:04.069Z,17.7
2019-01-06T00:56:08.133Z,17.6
2019-01-06T00:57:09.705Z,17.6
2019-01-06T00:58:11.272Z,17.7
2019-01-06T00:59:15.621Z,17.7
2019-01-06T01:00:19.186Z,17.7
2019-01-06T01:01:22.105Z,17.6
2019-01-06T01:02:23.389Z,17.7
2019-01-06T01:03:26.777Z,17.6
2019-01-06T01:04:30.062Z,17.6
2019-01-06T01:05:32.565Z,17.5
2019-01-06T01:06:33.900Z,17.5
2019-01-06T01:07:35.229Z,17.5
2019-01-06T01:08:36.541Z,17.5
2019-01-06T01:09:38.420Z,17.4
2019-01-06T01:10:39.719Z,17.4
2019-01-06T01:11:41.346Z,17.4
2019-01-06T01:12:42.838Z,17.4
2019-01-06T01:13:44.202Z,17.4
2019-01-06T01:14:45.521Z,17.3
2019-01-06T01:15:46.845Z,17.3
2019-01-06T01:16:48.198Z,17.3
2019-01-06T01:17:49.556Z,17.3
2019-01-06T01:18:50.889Z,17.2
2019-01-06T01:19:52.222Z,17.2
2019-01-06T01:20:53.539Z,17.2
2019-01-06T01:21:54.834Z,17.2
2019-01-06T01:22:56.194Z,17.2
2019-01-06T01:23:57.517Z,17.1
2019-01-06T01:24:58.802Z,17.1
2019-01-06T01:26:00.102Z,17.1
2019-01-06T01:27:01.444Z,17.1
2019-01-06T01:28:02.774Z,17.2
2019-01-06T01:29:04.096Z,17.2
2019-01-06T01:30:05.385Z,17.2
2019-01-06T01:31:06.682Z,17.1
2019-01-06T01:32:07.983Z,17.1
2019-01-06T01:33:09.337Z,17.2
2019-01-06T01:34:10.653Z,17.2
2019-01-06T01:35:11.989Z,17.2
2019-01-06T01:36:13.265Z,17.2
2019-01-06T01:37:14.550Z,17
2019-01-06T01:38:15.895Z,16.7
2019-01-06T01:39:17.215Z,16.4
2019-01-06T01:40:18.584Z,16.3
2019-01-06T01:41:19.927Z,16.1
2019-01-06T01:42:21.216Z,16
2019-01-06T01:43:23.243Z,15.8
2019-01-06T01:44:24.566Z,15.7
2019-01-06T01:45:25.930Z,15.7
2019-01-06T01:46:27.273Z,15.6
2019-01-06T01:47:28.628Z,15.6
2019-01-06T01:48:29.987Z,15.5
2019-01-06T01:49:31.284Z,15.5
2019-01-06T01:50:32.589Z,15.5
2019-01-06T01:51:33.876Z,15.5
2019-01-06T01:52:35.160Z,15.3
2019-01-06T01:53:36.742Z,15.3
2019-01-06T01:54:38.036Z,15.3
2019-01-06T01:55:39.334Z,15.3
2019-01-06T01:56:40.752Z,15.3
2019-01-06T01:57:42.034Z,15.2
2019-01-06T01:58:43.414Z,15.1
2019-01-06T01:59:45.632Z,15.1
2019-01-06T02:00:46.920Z,15.1
2019-01-06T02:01:48.201Z,15.1
2019-01-06T02:02:49.542Z,15.1
2019-01-06T02:03:50.871Z,14.9
2019-01-06T02:04:52.394Z,14.9
2019-01-06T02:05:54.029Z,14.9
2019-01-06T02:06:55.558Z,14.8
2019-01-06T02:07:57.202Z,14.8
2019-01-06T02:08:58.532Z,14.8
2019-01-06T02:10:00.004Z,14.8
2019-01-06T02:11:01.284Z,14.8
2019-01-06T02:12:02.559Z,14.8
2019-01-06T02:13:03.847Z,14.8
2019-01-06T02:14:05.189Z,14.7
2019-01-06T02:15:07.131Z,14.6
2019-01-06T02:16:08.410Z,14.5
2019-01-06T02:17:09.683Z,14.6
2019-01-06T02:18:10.985Z,14.6
2019-01-06T02:19:12.681Z,14.6
2019-01-06T02:20:14.162Z,14.6
2019-01-06T02:21:15.428Z,14.6
2019-01-06T02:22:16.989Z,14.6
2019-01-06T02:23:18.319Z,14.5
2019-01-06T02:24:19.977Z,14.4
2019-01-06T02:25:21.252Z,14.5
2019-01-06T02:26:22.536Z,14.5
2019-01-06T02:27:23.843Z,14.4
2019-01-06T02:28:25.525Z,14.4
2019-01-06T02:29:26.881Z,14.4
2019-01-06T02:30:28.397Z,14.4
2019-01-06T02:31:31.298Z,14.4
2019-01-06T02:32:35.755Z,14.4
2019-01-06T02:33:37.397Z,14.3
2019-01-06T02:34:38.947Z,14.1
2019-01-06T02:35:40.243Z,14.2
2019-01-06T02:36:41.717Z,14.2
2019-01-06T02:37:43.012Z,14.3
2019-01-06T02:38:44.295Z,14.3
2019-01-06T02:39:45.606Z,14.3
2019-01-06T02:40:49.005Z,14.3
2019-01-06T02:41:50.380Z,14.1
2019-01-06T02:42:51.691Z,14.2
2019-01-06T02:43:52.983Z,14.2
2019-01-06T02:44:54.301Z,14.3
2019-01-06T02:45:55.588Z,14.2
2019-01-06T02:46:56.872Z,14.2
2019-01-06T02:47:58.158Z,14
2019-01-06T02:48:59.590Z,14
2019-01-06T02:50:01.162Z,14.1
2019-01-06T02:51:02.444Z,14.1
2019-01-06T02:52:04.238Z,14.1
2019-01-06T02:53:07.650Z,13.9
2019-01-06T02:54:08.926Z,13.9
2019-01-06T02:55:10.236Z,13.9
2019-01-06T02:56:11.593Z,13.8
2019-01-06T02:57:12.878Z,13.9
2019-01-06T02:58:14.344Z,13.9
2019-01-06T02:59:15.613Z,13.9
2019-01-06T03:00:16.942Z,13.8
2019-01-06T03:01:18.228Z,13.8
2019-01-06T03:02:19.532Z,13.8
2019-01-06T03:03:20.856Z,13.9
2019-01-06T03:04:22.130Z,13.9
2019-01-06T03:05:23.461Z,13.9
2019-01-06T03:06:24.713Z,13.9
2019-01-06T03:07:27.103Z,13.9
2019-01-06T03:08:28.381Z,13.9
2019-01-06T03:09:29.657Z,13.9
2019-01-06T03:10:30.995Z,13.9
2019-01-06T03:11:32.325Z,13.9
2019-01-06T03:12:33.623Z,13.9
2019-01-06T03:13:34.925Z,13.9
2019-01-06T03:14:36.222Z,13.9
2019-01-06T03:15:37.576Z,13.8
2019-01-06T03:16:38.833Z,13.8
2019-01-06T03:17:40.570Z,13.7
2019-01-06T03:18:41.900Z,13.7
2019-01-06T03:19:43.201Z,13.6
2019-01-06T03:20:44.515Z,13.6
2019-01-06T03:21:47.943Z,13.7
2019-01-06T03:22:49.217Z,13.7
2019-01-06T03:23:50.532Z,13.7
2019-01-06T03:24:51.831Z,13.6
2019-01-06T03:25:53.161Z,13.6
2019-01-06T03:26:54.501Z,13.7
2019-01-06T03:27:55.806Z,13.7
2019-01-06T03:28:57.096Z,13.6
2019-01-06T03:29:58.389Z,13.6
2019-01-06T03:30:59.753Z,13.6
2019-01-06T03:32:01.260Z,13.6
2019-01-06T03:33:02.530Z,13.6
2019-01-06T03:34:03.814Z,13.6
2019-01-06T03:35:05.096Z,13.6
2019-01-06T03:36:06.394Z,13.5
2019-01-06T03:37:07.672Z,13.4
2019-01-06T03:38:08.956Z,13.4
2019-01-06T03:39:10.242Z,13.5
2019-01-06T03:40:11.798Z,13.5
2019-01-06T03:41:13.289Z,13.5
2019-01-06T03:42:14.565Z,13.5
2019-01-06T03:43:15.834Z,13.4
2019-01-06T03:44:17.101Z,13.4
2019-01-06T03:45:18.378Z,13.4
2019-01-06T03:46:19.718Z,13.5
2019-01-06T03:47:20.984Z,13.5
2019-01-06T03:48:22.244Z,13.4
2019-01-06T03:49:23.523Z,13.4
2019-01-06T03:50:24.793Z,13.5
2019-01-06T03:51:26.150Z,13.4
2019-01-06T03:52:27.428Z,13.4
2019-01-06T03:53:28.718Z,13.3
2019-01-06T03:54:30.007Z,13.2
2019-01-06T03:55:31.271Z,13.2
2019-01-06T03:56:32.585Z,13.2
2019-01-06T03:57:33.875Z,13.2
2019-01-06T03:58:35.150Z,13.2
2019-01-06T03:59:39.189Z,13.3
2019-01-06T04:00:40.467Z,13.2
2019-01-06T04:01:41.787Z,13.2
2019-01-06T04:02:43.058Z,13.2
2019-01-06T04:03:44.328Z,13.2
2019-01-06T04:04:45.625Z,13.2
2019-01-06T04:05:46.926Z,13.3
2019-01-06T04:06:48.218Z,13.1
2019-01-06T04:07:49.504Z,13.1
2019-01-06T04:08:50.804Z,13.1
2019-01-06T04:09:52.297Z,13.1
2019-01-06T04:10:54.328Z,13.2
2019-01-06T04:11:55.690Z,13.2
2019-01-06T04:12:56.984Z,13.3
2019-01-06T04:13:58.265Z,13.3
2019-01-06T04:14:59.538Z,13.3
2019-01-06T04:16:00.890Z,13.3
2019-01-06T04:17:02.277Z,13.2
2019-01-06T04:18:03.555Z,13.1
2019-01-06T04:19:04.847Z,13.1
2019-01-06T04:20:06.118Z,13.1
2019-01-06T04:21:07.419Z,13.1
2019-01-06T04:22:08.903Z,13.2
2019-01-06T04:23:10.216Z,13.2
2019-01-06T04:24:11.524Z,13.2
2019-01-06T04:25:12.840Z,13.2
2019-01-06T04:26:14.101Z,13.2
2019-01-06T04:27:15.393Z,13.2
2019-01-06T04:28:16.660Z,13.2
2019-01-06T04:29:18.322Z,13.2
2019-01-06T04:30:19.676Z,13.1
2019-01-06T04:31:20.949Z,13.1
2019-01-06T04:32:22.267Z,13.1
2019-01-06T04:33:26.576Z,13.1
2019-01-06T04:34:27.860Z,13.1
2019-01-06T04:35:29.124Z,13.1
2019-01-06T04:36:30.385Z,13.1
2019-01-06T04:37:31.688Z,13.1
2019-01-06T04:38:32.965Z,13.1
2019-01-06T04:39:34.232Z,13.1
2019-01-06T04:40:35.541Z,13.1
2019-01-06T04:41:36.846Z,13
2019-01-06T04:42:38.162Z,12.9
2019-01-06T04:43:39.448Z,12.9
2019-01-06T04:44:40.726Z,13
2019-01-06T04:45:41.985Z,13.1
2019-01-06T04:46:43.289Z,13
2019-01-06T04:47:44.899Z,13
2019-01-06T04:48:46.169Z,13.1
2019-01-06T04:49:47.445Z,13
2019-01-06T04:50:49.371Z,13
2019-01-06T04:51:50.674Z,13
2019-01-06T04:52:52.247Z,13
2019-01-06T04:53:54.764Z,12.9
2019-01-06T04:54:56.034Z,13
2019-01-06T04:55:57.328Z,12.9
2019-01-06T04:56:58.645Z,13
2019-01-06T04:58:02.504Z,13
2019-01-06T04:59:03.804Z,13
2019-01-06T05:00:05.101Z,13
2019-01-06T05:01:06.380Z,13
2019-01-06T05:02:07.661Z,13
2019-01-06T05:03:09.012Z,13
2019-01-06T05:04:10.303Z,13
2019-01-06T05:05:11.598Z,12.9
2019-01-06T05:06:12.883Z,12.9
2019-01-06T05:07:14.153Z,12.9
2019-01-06T05:08:15.450Z,12.9
2019-01-06T05:09:16.736Z,12.9
2019-01-06T05:10:18.099Z,12.9
2019-01-06T05:11:19.415Z,12.9
2019-01-06T05:12:20.700Z,12.9
2019-01-06T05:13:22.310Z,12.9
2019-01-06T05:14:23.628Z,12.9
2019-01-06T05:15:24.907Z,12.9
2019-01-06T05:16:26.922Z,12.9
2019-01-06T05:17:28.218Z,12.8
2019-01-06T05:18:29.571Z,12.8
2019-01-06T05:19:30.914Z,12.9
2019-01-06T05:20:32.232Z,12.9
2019-01-06T05:21:33.534Z,12.8
2019-01-06T05:22:34.845Z,12.8
2019-01-06T05:23:36.186Z,12.8
2019-01-06T05:24:40.276Z,12.8
2019-01-06T05:25:41.586Z,12.8
2019-01-06T05:26:45.336Z,12.8
2019-01-06T05:27:52.417Z,12.8
2019-01-06T05:28:53.739Z,12.8
2019-01-06T05:29:57.979Z,12.8
2019-01-06T05:30:59.253Z,12.8
2019-01-06T05:32:00.535Z,12.7
2019-01-06T05:33:01.827Z,12.7
2019-01-06T05:34:03.130Z,12.8
2019-01-06T05:35:04.425Z,12.8
2019-01-06T05:36:05.792Z,12.8
2019-01-06T05:37:07.078Z,12.8
2019-01-06T05:38:08.352Z,12.8
2019-01-06T05:39:09.672Z,12.9
2019-01-06T05:40:11.370Z,12.8
2019-01-06T05:41:12.644Z,12.9
2019-01-06T05:42:13.945Z,12.9
2019-01-06T05:43:15.257Z,12.8
2019-01-06T05:44:16.929Z,12.8
2019-01-06T05:45:18.249Z,12.8
2019-01-06T05:46:19.552Z,12.8
2019-01-06T05:47:20.878Z,12.8
2019-01-06T05:48:22.200Z,12.8
2019-01-06T05:49:23.553Z,12.8
2019-01-06T05:50:24.836Z,12.8
2019-01-06T05:51:26.126Z,12.8
2019-01-06T05:52:27.874Z,12.8
2019-01-06T05:53:29.156Z,12.7
2019-01-06T05:54:30.465Z,12.7
2019-01-06T05:55:31.771Z,12.7
2019-01-06T05:56:33.034Z,12.7
2019-01-06T05:57:34.332Z,12.6
2019-01-06T05:58:35.609Z,12.7
2019-01-06T05:59:36.937Z,12.7
2019-01-06T06:00:38.255Z,12.7
2019-01-06T06:01:39.534Z,12.7
2019-01-06T06:02:40.789Z,12.6
2019-01-06T06:03:42.082Z,12.6
2019-01-06T06:04:43.412Z,12.6
2019-01-06T06:05:44.714Z,12.6
2019-01-06T06:06:46.295Z,12.7
2019-01-06T06:07:47.618Z,12.6
2019-01-06T06:08:48.879Z,12.7
2019-01-06T06:09:50.231Z,12.7
2019-01-06T06:10:52.865Z,12.7
2019-01-06T06:11:54.149Z,12.7
2019-01-06T06:12:55.467Z,12.7
2019-01-06T06:13:56.759Z,12.6
2019-01-06T06:14:58.375Z,12.6
2019-01-06T06:15:59.700Z,12.6
2019-01-06T06:17:00.982Z,12.6
2019-01-06T06:18:05.410Z,12.6
2019-01-06T06:19:06.976Z,12.6
2019-01-06T06:20:08.330Z,12.6
2019-01-06T06:21:09.642Z,12.6
2019-01-06T06:22:10.917Z,12.7
2019-01-06T06:23:12.205Z,12.7
2019-01-06T06:24:13.476Z,12.7
2019-01-06T06:25:14.782Z,12.7
2019-01-06T06:26:20.957Z,12.7
2019-01-06T06:27:24.710Z,12.7
2019-01-06T06:28:26.280Z,12.6
2019-01-06T06:29:27.592Z,12.6
2019-01-06T06:30:32.613Z,12.6
2019-01-06T06:31:34.070Z,12.6
2019-01-06T06:32:35.372Z,12.6
2019-01-06T06:33:36.672Z,12.6
2019-01-06T06:34:37.965Z,12.6
2019-01-06T06:35:39.284Z,12.6
2019-01-06T06:36:40.553Z,12.6
2019-01-06T06:37:41.848Z,12.6
2019-01-06T06:38:43.155Z,12.6
2019-01-06T06:39:44.442Z,12.6
2019-01-06T06:40:45.782Z,12.6
2019-01-06T06:41:47.100Z,12.6
2019-01-06T06:42:48.404Z,12.6
2019-01-06T06:43:49.715Z,12.6
2019-01-06T06:44:51.573Z,12.5
2019-01-06T06:45:52.916Z,12.6
2019-01-06T06:46:54.383Z,12.6
2019-01-06T06:47:58.081Z,12.6
2019-01-06T06:48:59.629Z,12.6
2019-01-06T06:50:00.936Z,12.5
2019-01-06T06:51:04.344Z,12.5
2019-01-06T06:52:08.710Z,12.5
2019-01-06T06:53:09.996Z,12.5
2019-01-06T06:54:11.318Z,12.5
2019-01-06T06:55:13.156Z,12.5
2019-01-06T06:56:14.678Z,12.5
2019-01-06T06:57:15.950Z,12.5
2019-01-06T06:58:17.222Z,12.5
2019-01-06T06:59:18.518Z,12.5
2019-01-06T07:00:19.813Z,12.5
2019-01-06T07:01:21.131Z,12.5
2019-01-06T07:02:23.536Z,12.4
2019-01-06T07:03:25.108Z,12.4
2019-01-06T07:04:26.412Z,12.4
2019-01-06T07:05:27.725Z,12.4
2019-01-06T07:06:29.071Z,12.4
2019-01-06T07:07:30.418Z,12.4
2019-01-06T07:08:31.770Z,12.4
2019-01-06T07:09:33.084Z,12.4
2019-01-06T07:10:34.346Z,12.4
2019-01-06T07:11:35.668Z,12.4
2019-01-06T07:12:36.961Z,12.4
2019-01-06T07:13:38.264Z,12.4
2019-01-06T07:14:42.262Z,12.4
2019-01-06T07:15:43.630Z,12.4
2019-01-06T07:16:44.949Z,12.3
2019-01-06T07:17:46.241Z,12.3
2019-01-06T07:18:47.628Z,12.3
2019-01-06T07:19:48.960Z,12.3
2019-01-06T07:20:50.227Z,12.3
2019-01-06T07:21:51.547Z,12.3
2019-01-06T07:22:52.998Z,12.3
2019-01-06T07:23:54.287Z,12.3
2019-01-06T07:24:55.556Z,12.3
2019-01-06T07:25:56.992Z,12.3
2019-01-06T07:26:58.290Z,12.3
2019-01-06T07:27:59.592Z,12.3
2019-01-06T07:29:00.890Z,12.3
2019-01-06T07:30:02.180Z,12.3
2019-01-06T07:31:03.465Z,12.3
2019-01-06T07:32:04.789Z,12.2
2019-01-06T07:33:06.088Z,12.3
2019-01-06T07:34:07.400Z,12.3
2019-01-06T07:35:08.691Z,12.3
2019-01-06T07:36:09.973Z,12.3
2019-01-06T07:37:11.323Z,12.3
2019-01-06T07:38:12.611Z,12.3
2019-01-06T07:39:13.890Z,12.3
2019-01-06T07:40:15.231Z,12.3
2019-01-06T07:41:16.560Z,12.3
2019-01-06T07:42:17.966Z,12.3
2019-01-06T07:43:19.272Z,12.3
2019-01-06T07:44:20.556Z,12.3
2019-01-06T07:45:21.853Z,12.3
2019-01-06T07:46:23.122Z,12.2
2019-01-06T07:47:24.443Z,12.2
2019-01-06T07:48:25.724Z,12.2
2019-01-06T07:49:26.993Z,12.2
2019-01-06T07:50:28.259Z,12.2
2019-01-06T07:51:29.528Z,12.3
2019-01-06T07:52:30.868Z,12.3
2019-01-06T07:53:32.198Z,12.3
2019-01-06T07:54:33.505Z,12.2
2019-01-06T07:55:34.779Z,12.3
2019-01-06T07:56:36.067Z,12.3
2019-01-06T07:57:37.371Z,12.3
2019-01-06T07:58:38.661Z,12.3
2019-01-06T07:59:39.945Z,12.2
2019-01-06T08:00:41.217Z,12.2
2019-01-06T08:01:42.508Z,12.2
2019-01-06T08:02:43.826Z,12.2
2019-01-06T08:03:45.109Z,12.2
2019-01-06T08:04:46.402Z,12.2
2019-01-06T08:05:47.684Z,12.2
2019-01-06T08:06:49.013Z,12.2
2019-01-06T08:07:50.353Z,12.2
2019-01-06T08:08:52.053Z,12.2
2019-01-06T08:09:53.339Z,12.2
2019-01-06T08:10:54.656Z,12.2
2019-01-06T08:11:55.938Z,12.2
2019-01-06T08:12:57.253Z,12.2
2019-01-06T08:13:58.548Z,12.2
2019-01-06T08:14:59.830Z,12.3
2019-01-06T08:16:01.137Z,12.2
2019-01-06T08:17:02.448Z,12.2
2019-01-06T08:18:03.769Z,12.2
2019-01-06T08:19:05.321Z,12.2
2019-01-06T08:20:06.618Z,12.2
2019-01-06T08:21:10.090Z,12.2
2019-01-06T08:22:11.744Z,12.2
2019-01-06T08:23:13.078Z,12.2
2019-01-06T08:24:14.373Z,12.2
2019-01-06T08:25:15.695Z,12.2
2019-01-06T08:26:16.998Z,12.2
2019-01-06T08:27:18.300Z,12.2
2019-01-06T08:28:19.637Z,12.2
2019-01-06T08:29:20.936Z,12.2
2019-01-06T08:30:22.262Z,12.2
2019-01-06T08:31:23.578Z,12.2
2019-01-06T08:32:32.403Z,12.2
2019-01-06T08:33:33.779Z,12.1
2019-01-06T08:34:35.278Z,12.1
2019-01-06T08:35:36.576Z,12.1
2019-01-06T08:36:37.855Z,12.1
2019-01-06T08:37:39.146Z,12.1
2019-01-06T08:38:40.473Z,12.1
2019-01-06T08:39:41.963Z,12.1
2019-01-06T08:40:43.242Z,12.1
2019-01-06T08:41:44.567Z,12.2
2019-01-06T08:42:45.938Z,12.2
2019-01-06T08:43:47.748Z,12.2
2019-01-06T08:44:49.999Z,12.2
2019-01-06T08:45:53.915Z,12.1
2019-01-06T08:46:55.210Z,12.2
2019-01-06T08:47:56.513Z,12.2
2019-01-06T08:48:57.850Z,12.2
2019-01-06T08:49:59.133Z,12.2
2019-01-06T08:51:00.455Z,12.2
2019-01-06T08:52:02.003Z,12.2
2019-01-06T08:53:03.322Z,12.2
2019-01-06T08:54:04.700Z,12.2
2019-01-06T08:55:05.994Z,12.2
2019-01-06T08:56:09.485Z,12.2
2019-01-06T08:57:10.771Z,12.2
2019-01-06T08:58:12.044Z,12.2
2019-01-06T08:59:13.377Z,12.2
2019-01-06T09:00:16.708Z,12.2
2019-01-06T09:01:18.017Z,12.2
2019-01-06T09:02:19.347Z,12.2
2019-01-06T09:03:20.662Z,12.2
2019-01-06T09:04:22.337Z,12.2
2019-01-06T09:05:23.625Z,12.2
2019-01-06T09:06:24.966Z,12.2
2019-01-06T09:07:26.403Z,12.2
2019-01-06T09:08:27.751Z,12.2
2019-01-06T09:09:29.318Z,12.2
2019-01-06T09:10:30.623Z,12.2
2019-01-06T09:11:32.268Z,12.2
2019-01-06T09:12:33.587Z,12.2
2019-01-06T09:13:34.883Z,12.1
2019-01-06T09:14:36.263Z,12.1
2019-01-06T09:15:37.555Z,12.1
2019-01-06T09:16:38.859Z,12.1
2019-01-06T09:17:40.254Z,12.2
2019-01-06T09:18:41.547Z,12.2
2019-01-06T09:19:50.119Z,12.2
2019-01-06T09:20:51.922Z,12.2
2019-01-06T09:21:53.225Z,12.1
2019-01-06T09:22:54.525Z,12.2
2019-01-06T09:23:55.829Z,12.1
2019-01-06T09:25:02.562Z,12.1
2019-01-06T09:26:03.877Z,12.2
2019-01-06T09:27:05.302Z,12.2
2019-01-06T09:28:09.320Z,12.2
2019-01-06T09:29:15.384Z,12.1
2019-01-06T09:30:18.000Z,12.1
2019-01-06T09:31:19.300Z,12.1
2019-01-06T09:32:22.413Z,12.2
2019-01-06T09:33:26.502Z,12.2
2019-01-06T09:34:28.246Z,12.3
2019-01-06T09:35:31.103Z,12.5
2019-01-06T09:36:32.808Z,12.8
2019-01-06T09:37:34.152Z,13.2
2019-01-06T09:38:35.445Z,13.4
2019-01-06T09:39:36.740Z,13.7
2019-01-06T09:40:38.114Z,14
2019-01-06T09:41:42.476Z,14.1
2019-01-06T09:42:43.780Z,14.1
2019-01-06T09:43:45.056Z,14.2
2019-01-06T09:44:46.473Z,14.3
2019-01-06T09:45:47.807Z,14.5
2019-01-06T09:46:49.164Z,14.5
2019-01-06T09:47:50.466Z,14.6
2019-01-06T09:48:51.770Z,14.7
2019-01-06T09:49:53.305Z,14.7
2019-01-06T09:50:56.574Z,14.8
2019-01-06T09:51:57.878Z,14.8
2019-01-06T09:52:59.201Z,15
2019-01-06T09:54:00.784Z,14.9
2019-01-06T09:55:02.124Z,14.9
2019-01-06T09:56:06.487Z,15.1
2019-01-06T09:57:08.349Z,15.3
2019-01-06T09:58:12.910Z,15.3
2019-01-06T09:59:15.417Z,15.4
2019-01-06T10:00:16.847Z,15.4
2019-01-06T10:01:18.176Z,15.3
2019-01-06T10:02:19.467Z,15.4
2019-01-06T10:03:20.756Z,15.5
2019-01-06T10:04:22.029Z,15.5
2019-01-06T10:05:23.642Z,15.4
2019-01-06T10:06:25.264Z,15.4
2019-01-06T10:07:26.625Z,15.5
2019-01-06T10:08:27.932Z,15.6
2019-01-06T10:09:29.317Z,15.6
2019-01-06T10:10:30.634Z,15.6
2019-01-06T10:11:31.981Z,15.6
2019-01-06T10:12:33.325Z,15.6
2019-01-06T10:13:34.656Z,15.6
2019-01-06T10:14:35.976Z,15.6
2019-01-06T10:15:37.277Z,15.5
2019-01-06T10:16:38.825Z,15.5
2019-01-06T10:17:40.796Z,15.6
2019-01-06T10:18:42.370Z,15.6
2019-01-06T10:19:45.768Z,15.7
2019-01-06T10:20:47.073Z,15.8
2019-01-06T10:21:48.406Z,15.8
2019-01-06T10:22:52.096Z,15.8
2019-01-06T10:23:56.461Z,15.9
2019-01-06T10:24:57.753Z,15.9
2019-01-06T10:25:59.819Z,15.9
2019-01-06T10:27:01.319Z,16
2019-01-06T10:28:02.660Z,16
2019-01-06T10:29:03.981Z,16
2019-01-06T10:30:05.309Z,16
2019-01-06T10:31:06.831Z,16.1
2019-01-06T10:32:08.477Z,16.1
2019-01-06T10:33:09.772Z,16
2019-01-06T10:34:11.159Z,16
2019-01-06T10:35:12.460Z,16.1
2019-01-06T10:36:18.072Z,16.1
2019-01-06T10:37:19.455Z,16.1
2019-01-06T10:38:20.783Z,16.1
2019-01-06T10:39:22.354Z,16.1
2019-01-06T10:40:23.657Z,16.1
2019-01-06T10:41:24.981Z,16.2
2019-01-06T10:42:26.324Z,16.2
2019-01-06T10:43:30.439Z,16.2
2019-01-06T10:44:31.756Z,16.2
2019-01-06T10:45:33.070Z,16.2
2019-01-06T10:46:34.394Z,16.3
2019-01-06T10:47:36.219Z,16.4
2019-01-06T10:48:39.709Z,16.4
2019-01-06T10:49:43.493Z,16.5
2019-01-06T10:50:44.997Z,16.5
2019-01-06T10:51:46.323Z,16.4
2019-01-06T10:52:47.642Z,16.4
2019-01-06T10:53:49.160Z,16.4
2019-01-06T10:54:50.455Z,16.5
2019-01-06T10:55:54.242Z,16.3
2019-01-06T10:56:55.633Z,16.4
2019-01-06T10:57:58.638Z,16.4
2019-01-06T10:59:01.014Z,16.5
2019-01-06T11:00:02.598Z,16.5
2019-01-06T11:01:05.022Z,16.5
2019-01-06T11:02:06.370Z,16.5
2019-01-06T11:03:07.707Z,16.5
2019-01-06T11:04:12.091Z,16.5
2019-01-06T11:05:13.684Z,16.6
2019-01-06T11:06:14.982Z,16.6
2019-01-06T11:07:16.281Z,16.6
2019-01-06T11:08:18.045Z,16.7
2019-01-06T11:09:19.864Z,16.6
2019-01-06T11:10:21.316Z,16.5
2019-01-06T11:11:22.693Z,16.6
2019-01-06T11:12:24.060Z,16.6
2019-01-06T11:13:25.822Z,16.6
2019-01-06T11:14:27.584Z,16.6
2019-01-06T11:15:29.302Z,16.7
2019-01-06T11:16:30.683Z,16.8
2019-01-06T11:17:32.066Z,16.7
2019-01-06T11:18:33.448Z,16.7
2019-01-06T11:19:34.766Z,16.7
2019-01-06T11:20:36.056Z,16.7
2019-01-06T11:21:37.418Z,16.8
2019-01-06T11:22:38.737Z,16.8
2019-01-06T11:23:40.381Z,16.8
2019-01-06T11:24:44.505Z,16.8
2019-01-06T11:25:46.231Z,16.8
2019-01-06T11:26:52.723Z,16.8
2019-01-06T11:27:56.773Z,16.9
2019-01-06T11:28:58.129Z,16.9
2019-01-06T11:29:59.746Z,16.9
2019-01-06T11:31:01.079Z,16.9
2019-01-06T11:32:02.524Z,16.9
2019-01-06T11:33:03.866Z,17
2019-01-06T11:34:05.308Z,17.1
2019-01-06T11:35:06.837Z,17.1
2019-01-06T11:36:08.154Z,17.1
2019-01-06T11:37:09.477Z,17.1
2019-01-06T11:38:10.957Z,17.1
2019-01-06T11:39:12.300Z,17.1
2019-01-06T11:40:13.621Z,17.1
2019-01-06T11:41:14.944Z,17
2019-01-06T11:42:16.262Z,17
2019-01-06T11:43:20.635Z,17
2019-01-06T11:44:22.316Z,17
2019-01-06T11:45:23.645Z,17
2019-01-06T11:46:25.264Z,17.1
2019-01-06T11:47:26.597Z,17.1
2019-01-06T11:48:28.023Z,17
2019-01-06T11:49:29.436Z,17
2019-01-06T11:50:30.752Z,17.1
2019-01-06T11:51:41.132Z,17.1
2019-01-06T11:52:42.460Z,17.1
2019-01-06T11:53:46.329Z,17
2019-01-06T11:54:47.661Z,17.1
2019-01-06T11:55:49.248Z,17.1
2019-01-06T11:56:50.569Z,17.2
2019-01-06T11:57:51.870Z,17.2
2019-01-06T11:58:53.191Z,17.3
2019-01-06T11:59:57.602Z,17.1
2019-01-06T12:00:58.970Z,17.2
2019-01-06T12:02:04.161Z,17.2
2019-01-06T12:03:05.463Z,17.2
2019-01-06T12:04:08.216Z,17.2
2019-01-06T12:05:09.827Z,17.2
2019-01-06T12:06:11.180Z,17.1
2019-01-06T12:07:15.600Z,17.1
2019-01-06T12:08:16.918Z,17.1
2019-01-06T12:09:18.341Z,17.1
2019-01-06T12:10:20.019Z,17.1
2019-01-06T12:11:21.351Z,17.1
2019-01-06T12:12:22.673Z,17.1
2019-01-06T12:13:23.970Z,17.1
2019-01-06T12:14:25.298Z,17.2
2019-01-06T12:15:27.904Z,17.3
2019-01-06T12:16:29.230Z,17.3
2019-01-06T12:17:32.085Z,17.2
2019-01-06T12:18:33.847Z,17.3
2019-01-06T12:19:35.392Z,17.2
2019-01-06T12:20:36.762Z,17.3
2019-01-06T12:21:38.384Z,17.2
2019-01-06T12:22:39.725Z,17.3
2019-01-06T12:23:41.275Z,17.3
2019-01-06T12:24:43.827Z,17.3
2019-01-06T12:25:47.836Z,17.4
2019-01-06T12:26:49.106Z,17.5
2019-01-06T12:27:50.673Z,17.4
2019-01-06T12:28:52.250Z,17.4
2019-01-06T12:29:55.552Z,17.3
2019-01-06T12:30:57.008Z,17.4
2019-01-06T12:31:58.398Z,17.2
2019-01-06T12:33:00.117Z,17.4
2019-01-06T12:34:01.772Z,17.5
2019-01-06T12:35:03.387Z,17.5
2019-01-06T12:36:05.153Z,17.4
2019-01-06T12:37:06.672Z,17.4
2019-01-06T12:38:09.803Z,17.4
2019-01-06T12:39:11.101Z,17.4
2019-01-06T12:40:12.648Z,17.4
2019-01-06T12:41:14.221Z,17.4
2019-01-06T12:42:15.889Z,17.4
2019-01-06T12:43:26.453Z,17.5
2019-01-06T12:44:30.143Z,17.5
2019-01-06T12:45:31.749Z,17.7
2019-01-06T12:46:33.071Z,17.8
2019-01-06T12:47:34.570Z,17.6
2019-01-06T12:48:37.389Z,17.6
2019-01-06T12:49:38.671Z,17.6
2019-01-06T12:50:40.245Z,17.5
2019-01-06T12:51:43.585Z,17.5
2019-01-06T12:52:54.823Z,17.5
2019-01-06T12:53:59.574Z,17.5
2019-01-06T12:55:03.243Z,17.5
2019-01-06T12:56:11.250Z,17.6
2019-01-06T12:57:14.783Z,17.5
2019-01-06T12:58:16.289Z,17.6
2019-01-06T12:59:17.897Z,17.7
2019-01-06T13:00:21.678Z,17.7
2019-01-06T13:01:23.026Z,17.6
2019-01-06T13:02:24.386Z,17.6
2019-01-06T13:03:28.221Z,17.6
2019-01-06T13:04:29.753Z,17.6
2019-01-06T13:05:32.298Z,17.6
2019-01-06T13:06:35.747Z,17.6
2019-01-06T13:07:37.087Z,17.7
2019-01-06T13:08:41.334Z,17.7
2019-01-06T13:09:42.665Z,17.7
2019-01-06T13:10:44.307Z,17.7
2019-01-06T13:11:45.626Z,17.7
2019-01-06T13:12:46.984Z,17.7
2019-01-06T13:13:48.276Z,17.7
2019-01-06T13:14:49.579Z,17.6
2019-01-06T13:15:51.211Z,17.7
2019-01-06T13:16:52.549Z,17.6
2019-01-06T13:17:53.901Z,17.7
2019-01-06T13:18:55.223Z,17.7
2019-01-06T13:19:58.028Z,17.7
2019-01-06T13:20:59.369Z,17.8
2019-01-06T13:22:00.680Z,17.8
2019-01-06T13:23:02.020Z,17.8
2019-01-06T13:24:03.320Z,17.8
2019-01-06T13:25:04.604Z,17.8
2019-01-06T13:26:06.069Z,17.7
2019-01-06T13:27:07.374Z,17.7
2019-01-06T13:28:09.151Z,17.7
2019-01-06T13:29:16.633Z,17.7
2019-01-06T13:30:17.929Z,17.7
2019-01-06T13:31:19.311Z,17.8
2019-01-06T13:32:25.120Z,17.7
2019-01-06T13:33:26.901Z,17.7
2019-01-06T13:34:28.748Z,17.7
2019-01-06T13:35:30.326Z,17.7
2019-01-06T13:36:33.865Z,17.7
2019-01-06T13:37:36.738Z,17.7
2019-01-06T13:38:38.168Z,17.7
2019-01-06T13:39:42.462Z,17.8
2019-01-06T13:40:43.796Z,17.7
2019-01-06T13:41:47.757Z,17.7
2019-01-06T13:42:49.167Z,17.7
2019-01-06T13:43:50.530Z,17.7
2019-01-06T13:44:53.645Z,17.7